Time;durP1;ratioP1;P1;durP2;ratioP2;P2;SDS_P1;SDS_P2;PMS_P1;PMS_P2;Temp;Humidity;BMP_temperature;BMP_pressure;BME280_temperature;BME280_humidity;BME280_pressure;Samples;Min_cycle;Max_cycle;Signal;HPM_P1;HPM_P2
2021/12/24 00:00:29;;;;;;;86.25;39.65;;;;;;;;;;4343833;28;10001558;-79
2021/12/24 00:02:56;;;;;;;83.75;39.63;;;3.30;99.90;;;;;;4962979;28;20310;-81
2021/12/24 00:05:22;;;;;;;80.45;38.30;;;3.30;99.90;;;;;;4970965;28;20031;-81
2021/12/24 00:07:48;;;;;;;78.60;39.00;;;3.30;99.90;;;;;;4965690;28;20043;-81
2021/12/24 00:10:15;;;;;;;74.90;39.10;;;3.40;99.90;;;;;;4967191;28;20089;-81
2021/12/24 00:12:46;;;;;;;79.47;37.33;;;3.50;99.90;;;;;;4967588;28;20042;-80
2021/12/24 00:18:04;;;;;;;74.32;36.85;;;3.50;99.90;;;;;;4966860;28;20050;-81
2021/12/24 00:36:29;;;;;;;79.97;38.95;;;;;;;;;;4969758;28;20046;-81
2021/12/24 00:38:55;;;;;;;77.40;39.58;;;;;;;;;;4970183;28;20035;-80
2021/12/24 00:41:21;;;;;;;72.22;37.65;;;;;;;;;;4962052;28;20027;-81
2021/12/24 00:43:47;;;;;;;71.40;37.83;;;;;;;;;;4960703;28;20037;-80
2021/12/24 00:46:13;;;;;;;72.72;36.47;;;;;;;;;;4960235;28;20310;-81
2021/12/24 00:48:39;;;;;;;66.80;35.65;;;;;;;;;;4955678;28;20035;-81
2021/12/24 00:55:57;;;;;;;64.45;34.95;;;;;;;;;;4964322;28;20047;-80
2021/12/24 00:58:23;;;;;;;68.00;36.03;;;;;;;;;;4966973;28;20069;-81
2021/12/24 01:00:49;;;;;;;67.70;36.35;;;;;;;;;;4959852;28;20031;-81
2021/12/24 01:03:15;;;;;;;69.13;35.13;;;;;;;;;;4960371;28;20045;-82
2021/12/24 01:05:41;;;;;;;66.78;35.38;;;;;;;;;;4965829;28;20648;-81
2021/12/24 01:08:09;;;;;;;71.28;36.00;;;;;;;;;;4965451;28;20039;-80
2021/12/24 01:10:37;;;;;;;62.38;34.50;;;;;;;;;;4969803;28;20039;-80
2021/12/24 01:13:03;;;;;;;76.10;36.70;;;;;;;;;;4968823;28;20034;-80
2021/12/24 01:15:30;;;;;;;73.88;37.05;;;;;;;;;;4959795;28;20027;-80
2021/12/24 01:18:12;;;;;;;72.45;36.15;;;;;;;;;;4970202;28;20035;-80
2021/12/24 01:20:52;;;;;;;73.80;36.92;;;;;;;;;;4958282;28;20033;-80
2021/12/24 01:24:22;;;;;;;73.45;36.95;;;;;;;;;;4965366;28;20023;-80
2021/12/24 01:26:21;;;;;;;69.95;35.13;;;;;;;;;;4955730;28;20038;-80
2021/12/24 01:44:58;;;;;;;81.10;39.30;;;;;;;;;;4963831;28;20037;-81
2021/12/24 01:47:24;;;;;;;75.95;37.92;;;;;;;;;;4963950;28;20023;-82
2021/12/24 01:49:50;;;;;;;78.45;38.28;;;;;;;;;;4965873;28;20041;-82
2021/12/24 01:52:16;;;;;;;78.97;39.65;;;;;;;;;;4963461;28;20037;-82
2021/12/24 01:54:45;;;;;;;78.47;39.25;;;;;;;;;;4960301;28;20042;-82
2021/12/24 01:57:12;;;;;;;78.57;39.17;;;;;;;;;;4952446;28;20615;-82
2021/12/24 01:59:38;;;;;;;76.50;38.67;;;;;;;;;;4964009;28;20109;-82
2021/12/24 02:02:04;;;;;;;82.57;38.88;;;;;;;;;;4968479;28;20446;-82
2021/12/24 02:04:31;;;;;;;80.07;38.83;;;;;;;;;;4966119;28;20019;-82
2021/12/24 02:06:57;;;;;;;81.47;38.97;;;;;;;;;;4960547;28;20053;-83
2021/12/24 02:09:23;;;;;;;79.72;38.00;;;;;;;;;;4962079;28;20114;-83
2021/12/24 02:11:49;;;;;;;84.65;39.88;;;;;;;;;;4964821;28;20023;-82
2021/12/24 02:14:18;;;;;;;85.95;41.05;;;;;;;;;;4969032;28;20030;-82
2021/12/24 02:28:35;;;;;;;76.07;36.28;;;4.70;99.90;;;;;;4908721;29;20036;-83
2021/12/24 02:31:02;;;;;;;77.90;37.00;;;4.80;99.90;;;;;;4907841;29;20032;-82
2021/12/24 02:33:28;;;;;;;78.80;36.45;;;4.80;99.90;;;;;;4936809;28;20427;-82
2021/12/24 02:35:53;;;;;;;71.63;35.58;;;4.80;99.90;;;;;;4959380;28;20039;-82
2021/12/24 02:38:19;;;;;;;75.75;37.42;;;4.90;99.90;;;;;;4965600;28;20018;-82
2021/12/24 02:40:45;;;;;;;76.80;38.33;;;4.90;99.90;;;;;;4972886;28;20039;-82
2021/12/24 02:43:15;;;;;;;80.80;37.58;;;4.90;99.90;;;;;;4971201;28;20027;-82
2021/12/24 02:45:43;;;;;;;88.93;38.25;;;4.90;99.90;;;;;;4958682;28;20042;-83
2021/12/24 02:48:34;;;;;;;81.28;37.25;;;4.90;99.90;;;;;;4963326;28;20031;-83
2021/12/24 02:53:58;;;;;;;80.72;38.45;;;5.00;99.90;;;;;;4965262;28;20132;-82
2021/12/24 02:56:31;;;;;;;71.63;35.47;;;5.00;99.90;;;;;;4956181;28;20116;-82
2021/12/24 02:59:10;;;;;;;78.93;37.25;;;5.00;99.90;;;;;;4964953;28;20039;-82
2021/12/24 03:01:39;;;;;;;73.63;35.67;;;5.00;99.90;;;;;;4962384;28;20449;-83
2021/12/24 03:04:06;;;;;;;70.40;34.67;;;5.00;99.90;;;;;;4963899;28;20031;-83
2021/12/24 03:06:35;;;;;;;70.45;32.40;;;5.10;99.90;;;;;;4962489;28;20050;-82
2021/12/24 03:09:05;;;;;;;69.38;33.78;;;5.10;99.90;;;;;;4967439;28;20035;-82
2021/12/24 03:11:31;;;;;;;61.72;31.52;;;5.10;99.90;;;;;;4966276;28;20039;-83
2021/12/24 03:13:56;;;;;;;68.65;34.10;;;5.20;99.90;;;;;;4967568;28;20162;-82
2021/12/24 03:16:22;;;;;;;66.07;32.38;;;5.20;99.90;;;;;;4962281;28;20085;-83
2021/12/24 03:18:49;;;;;;;58.08;30.98;;;5.20;99.90;;;;;;4967294;28;20110;-83
2021/12/24 03:21:19;;;;;;;59.97;31.58;;;5.20;99.90;;;;;;4964035;28;20023;-83
2021/12/24 03:24:34;;;;;;;53.95;30.20;;;5.30;99.90;;;;;;4959335;28;20033;-83
2021/12/24 03:26:37;;;;;;;55.15;28.02;;;5.40;99.90;;;;;;4968051;28;20165;-82
2021/12/24 03:29:05;;;;;;;56.08;29.58;;;5.40;99.90;;;;;;4959948;28;20535;-83
2021/12/24 03:31:32;;;;;;;52.35;29.25;;;5.50;99.90;;;;;;4960128;28;20031;-83
2021/12/24 03:33:58;;;;;;;59.35;30.75;;;5.50;99.90;;;;;;4960659;28;23010;-83
2021/12/24 03:36:26;;;;;;;58.17;29.50;;;5.50;99.90;;;;;;4954705;28;20142;-82
2021/12/24 03:38:53;;;;;;;48.35;27.92;;;5.50;99.90;;;;;;4957293;28;20500;-82
2021/12/24 03:41:19;;;;;;;49.55;27.20;;;5.60;99.90;;;;;;4962201;28;20039;-83
2021/12/24 03:43:46;;;;;;;52.95;28.80;;;5.50;99.90;;;;;;4964519;28;20022;-82
2021/12/24 03:46:15;;;;;;;48.13;27.40;;;5.60;99.90;;;;;;4965299;28;20486;-82
2021/12/24 03:48:58;;;;;;;48.25;25.65;;;5.60;99.90;;;;;;4951381;28;20036;-81
2021/12/24 03:51:43;;;;;;;49.80;26.08;;;5.60;99.90;;;;;;4962559;28;20034;-81
2021/12/24 03:56:54;;;;;;;43.50;24.55;;;5.70;99.90;;;;;;4967044;28;20568;-83
2021/12/24 03:59:19;;;;;;;47.88;25.48;;;5.70;99.90;;;;;;4961481;28;20113;-82
2021/12/24 04:01:45;;;;;;;47.25;26.33;;;5.70;99.90;;;;;;4962059;28;20026;-82
2021/12/24 04:04:11;;;;;;;43.58;26.95;;;5.70;99.90;;;;;;4966434;28;20054;-81
2021/12/24 04:06:36;;;;;;;53.00;26.23;;;5.70;99.90;;;;;;4918548;28;1095889;-81
2021/12/24 04:09:07;;;;;;;43.80;24.75;;;5.70;99.90;;;;;;4963517;28;20069;-81
2021/12/24 04:11:33;;;;;;;44.83;25.58;;;5.70;99.90;;;;;;4966105;28;20376;-81
2021/12/24 04:13:59;;;;;;;39.53;23.35;;;5.80;99.90;;;;;;4967201;28;20042;-81
2021/12/24 04:16:25;;;;;;;41.08;23.45;;;5.80;99.90;;;;;;4964653;28;20014;-81
2021/12/24 04:27:03;;;;;;;39.05;23.70;;;5.80;99.90;;;;;;4967228;28;20505;-81
2021/12/24 04:29:29;;;;;;;41.97;23.67;;;5.90;99.90;;;;;;4965015;28;20114;-81
2021/12/24 04:32:08;;;;;;;40.83;24.45;;;5.90;99.90;;;;;;4969358;28;20426;-80
2021/12/24 04:34:35;;;;;;;40.45;22.75;;;5.90;99.90;;;;;;4958290;28;20030;-81
2021/12/24 05:01:31;;;;;;;31.27;18.83;;;;;;;;;;4926446;28;20027;-80
2021/12/24 05:04:01;;;;;;;28.00;17.63;;;;;;;;;;4962274;28;20084;-80
2021/12/24 05:06:37;;;;;;;26.67;16.95;;;;;;;;;;4964134;28;20121;-80
2021/12/24 05:09:11;;;;;;;29.27;16.98;;;;;;;;;;4959099;28;20023;-81
2021/12/24 05:11:37;;;;;;;28.17;17.23;;;6.20;99.90;;;;;;4956348;28;20026;-82
2021/12/24 05:14:04;;;;;;;27.70;17.08;;;6.20;99.90;;;;;;4965797;28;21530;-82
2021/12/24 05:21:42;;;;;;;23.95;15.27;;;6.20;99.90;;;;;;4958983;28;20034;-82
2021/12/24 05:24:12;;;;;;;23.75;14.50;;;6.20;99.90;;;;;;4962326;28;20031;-83
2021/12/24 05:26:39;;;;;;;20.10;13.25;;;6.20;99.90;;;;;;4962923;28;20400;-82
2021/12/24 05:29:05;;;;;;;22.90;13.63;;;6.20;99.90;;;;;;4960873;28;20038;-83
2021/12/24 05:31:32;;;;;;;22.10;13.70;;;6.20;99.90;;;;;;4960208;28;20023;-83
2021/12/24 05:33:58;;;;;;;23.35;14.23;;;6.20;99.90;;;;;;4954050;28;20031;-82
2021/12/24 05:36:24;;;;;;;23.60;14.18;;;6.20;99.90;;;;;;4959064;28;20030;-82
2021/12/24 05:38:49;;;;;;;22.92;14.05;;;6.30;99.90;;;;;;4961332;28;21191;-82
2021/12/24 05:41:18;;;;;;;24.25;14.85;;;6.30;99.90;;;;;;4955547;28;20035;-82
2021/12/24 05:43:44;;;;;;;24.73;14.77;;;6.20;99.90;;;;;;4972028;28;20046;-83
2021/12/24 05:46:10;;;;;;;24.33;15.10;;;6.30;99.90;;;;;;4966804;28;20034;-82
2021/12/24 05:48:36;;;;;;;22.92;14.10;;;6.30;99.90;;;;;;4967305;28;20031;-83
2021/12/24 05:51:01;;;;;;;21.58;14.32;;;6.30;99.90;;;;;;4958937;28;20031;-82
2021/12/24 05:53:27;;;;;;;24.00;14.52;;;6.30;99.90;;;;;;4963355;28;20374;-81
2021/12/24 05:55:53;;;;;;;25.08;14.75;;;6.30;99.90;;;;;;4964383;28;20037;-82
2021/12/24 05:58:19;;;;;;;22.63;14.23;;;6.20;99.90;;;;;;4957121;28;20557;-84
2021/12/24 06:00:48;;;;;;;24.58;14.75;;;6.30;99.90;;;;;;4953264;28;20168;-83
2021/12/24 06:03:14;;;;;;;24.70;14.68;;;6.20;99.90;;;;;;4968635;28;20037;-83
2021/12/24 06:05:40;;;;;;;22.85;15.13;;;6.20;99.90;;;;;;4966596;28;20078;-83
2021/12/24 06:08:07;;;;;;;28.60;15.27;;;6.20;99.90;;;;;;4965503;28;20431;-83
2021/12/24 06:10:33;;;;;;;22.77;14.65;;;6.20;99.90;;;;;;4960991;28;20035;-83
2021/12/24 06:12:59;;;;;;;24.65;14.95;;;6.30;99.90;;;;;;4955439;28;20023;-84
2021/12/24 06:15:26;;;;;;;23.98;16.30;;;6.30;99.90;;;;;;4961375;28;20045;-83
2021/12/24 06:17:57;;;;;;;25.02;15.90;;;6.20;99.90;;;;;;4969243;28;20038;-82
2021/12/24 06:20:25;;;;;;;24.70;15.05;;;6.30;99.90;;;;;;4961280;28;20483;-82
2021/12/24 06:22:51;;;;;;;26.23;15.85;;;6.30;99.90;;;;;;4962950;28;20045;-82
2021/12/24 06:25:17;;;;;;;28.48;16.08;;;6.30;99.90;;;;;;4969212;28;20034;-82
2021/12/24 06:27:44;;;;;;;25.80;15.90;;;6.30;99.90;;;;;;4962129;28;20395;-83
2021/12/24 06:30:11;;;;;;;23.70;15.73;;;6.30;99.90;;;;;;4960914;28;20023;-83
2021/12/24 06:32:37;;;;;;;26.55;16.23;;;6.20;99.90;;;;;;4960669;28;20054;-82
2021/12/24 06:35:05;;;;;;;27.00;16.88;;;6.20;99.90;;;;;;4964751;28;20474;-82
2021/12/24 06:37:31;;;;;;;24.98;16.63;;;6.20;99.90;;;;;;4964409;28;20027;-82
2021/12/24 06:39:56;;;;;;;28.85;17.35;;;6.20;99.90;;;;;;4968716;28;20031;-82
2021/12/24 06:42:22;;;;;;;25.63;16.75;;;6.20;99.90;;;;;;4966923;28;20038;-84
2021/12/24 06:44:48;;;;;;;28.27;16.35;;;6.20;99.90;;;;;;4964082;28;20129;-82
2021/12/24 06:47:14;;;;;;;26.65;16.67;;;6.20;99.90;;;;;;4967727;28;20030;-84
2021/12/24 06:49:40;;;;;;;25.85;16.45;;;6.20;99.90;;;;;;4954765;28;20162;-84
2021/12/24 06:52:06;;;;;;;27.27;16.38;;;6.20;99.90;;;;;;4959425;28;20046;-82
2021/12/24 06:54:33;;;;;;;26.90;16.80;;;6.20;99.90;;;;;;4969312;28;20022;-81
2021/12/24 06:57:00;;;;;;;29.65;16.75;;;6.20;99.90;;;;;;4962608;28;20031;-81
2021/12/24 06:59:26;;;;;;;26.05;16.27;;;6.20;99.90;;;;;;4270234;28;10000887;-81
2021/12/24 07:01:52;;;;;;;25.25;16.58;;;6.20;99.90;;;;;;4943407;28;20613;-82
2021/12/24 07:04:18;;;;;;;25.33;15.80;;;6.20;99.90;;;;;;4953065;28;20035;-82
2021/12/24 07:06:45;;;;;;;27.95;16.58;;;6.20;99.90;;;;;;4945039;28;20091;-83
2021/12/24 07:09:12;;;;;;;28.17;16.58;;;6.20;99.90;;;;;;4956260;28;20669;-82
2021/12/24 07:11:38;;;;;;;34.30;19.73;;;6.20;99.90;;;;;;4960238;28;20042;-82
2021/12/24 07:14:04;;;;;;;29.10;16.83;;;6.20;99.90;;;;;;4957837;28;20215;-82
2021/12/24 07:16:30;;;;;;;31.50;17.80;;;6.10;99.90;;;;;;4952259;28;20487;-81
2021/12/24 07:18:55;;;;;;;27.17;17.65;;;6.10;99.90;;;;;;4957796;28;20509;-82
2021/12/24 07:21:21;;;;;;;28.85;17.83;;;6.10;99.90;;;;;;4949741;28;20856;-82
2021/12/24 07:23:47;;;;;;;28.23;18.38;;;6.20;99.90;;;;;;4943224;28;22910;-82
2021/12/24 07:26:12;;;;;;;27.30;17.52;;;6.10;99.90;;;;;;4951272;28;20035;-82
2021/12/24 07:28:38;;;;;;;27.38;15.93;;;6.10;99.90;;;;;;4961241;28;20370;-82
2021/12/24 07:31:04;;;;;;;23.52;16.20;;;6.10;99.90;;;;;;4956369;28;20494;-82
2021/12/24 07:33:29;;;;;;;24.50;16.20;;;6.10;99.90;;;;;;4954931;28;20396;-83
2021/12/24 07:35:55;;;;;;;29.15;16.88;;;6.10;99.90;;;;;;4963383;28;20039;-83
2021/12/24 07:38:21;;;;;;;38.92;22.90;;;6.10;99.90;;;;;;4957736;28;20110;-81
2021/12/24 07:40:47;;;;;;;29.15;17.52;;;6.10;99.90;;;;;;4972862;28;20031;-76
2021/12/24 07:43:13;;;;;;;30.23;16.15;;;6.10;99.90;;;;;;4962034;28;20023;-75
2021/12/24 07:45:41;;;;;;;25.35;16.33;;;6.10;99.90;;;;;;4965790;28;20033;-77
2021/12/24 07:48:14;;;;;;;25.52;16.40;;;6.10;99.90;;;;;;4964882;28;20477;-77
2021/12/24 07:53:12;;;;;;;32.08;19.55;;;6.10;99.90;;;;;;4967103;28;20106;-78
2021/12/24 07:55:38;;;;;;;27.63;19.88;;;6.10;99.90;;;;;;4963162;28;20142;-79
2021/12/24 07:58:06;;;;;;;26.95;16.98;;;6.10;99.90;;;;;;4962728;28;20074;-77
2021/12/24 08:00:32;;;;;;;28.63;18.15;;;6.10;99.90;;;;;;4957969;28;20117;-80
2021/12/24 08:02:58;;;;;;;22.25;14.60;;;6.10;99.90;;;;;;4962027;28;20134;-79
2021/12/24 08:05:25;;;;;;;21.88;14.30;;;6.20;99.90;;;;;;4957146;28;20113;-79
2021/12/24 08:07:53;;;;;;;27.55;17.42;;;6.10;99.90;;;;;;4956684;28;20035;-80
2021/12/24 08:10:20;;;;;;;31.10;18.48;;;6.10;99.90;;;;;;4957901;28;20031;-78
2021/12/24 08:12:46;;;;;;;24.02;16.35;;;6.20;99.90;;;;;;4962537;28;20087;-78
2021/12/24 08:15:11;;;;;;;23.70;15.07;;;6.20;99.90;;;;;;4956793;28;20812;-78
2021/12/24 08:17:38;;;;;;;27.92;15.07;;;6.20;99.90;;;;;;4968279;28;20054;-76
2021/12/24 08:20:05;;;;;;;24.35;14.35;;;6.20;99.90;;;;;;4963461;28;20038;-79
2021/12/24 08:22:31;;;;;;;24.50;14.65;;;6.20;99.90;;;;;;4948584;28;20610;-79
2021/12/24 08:24:56;;;;;;;21.38;13.77;;;6.30;99.90;;;;;;4961088;28;20232;-78
2021/12/24 08:27:22;;;;;;;22.45;14.27;;;6.30;99.90;;;;;;4967950;28;20110;-78
2021/12/24 08:29:48;;;;;;;19.67;14.15;;;6.30;99.90;;;;;;4971417;28;20161;-79
2021/12/24 08:32:13;;;;;;;21.45;15.18;;;6.40;99.90;;;;;;4957472;28;20038;-80
2021/12/24 08:34:39;;;;;;;26.65;16.85;;;6.30;99.90;;;;;;4954417;28;20028;-78
2021/12/24 08:37:06;;;;;;;24.25;14.70;;;6.40;99.90;;;;;;4945833;28;20542;-79
2021/12/24 08:39:32;;;;;;;22.65;15.57;;;6.40;99.90;;;;;;4967774;28;20062;-79
2021/12/24 08:41:58;;;;;;;26.20;15.00;;;6.40;99.90;;;;;;4966397;28;20039;-77
2021/12/24 08:44:28;;;;;;;20.85;14.65;;;6.40;99.90;;;;;;4961891;28;20023;-77
2021/12/24 08:46:54;;;;;;;26.85;17.88;;;6.40;99.90;;;;;;4959530;28;20035;-78
2021/12/24 08:49:21;;;;;;;24.02;14.07;;;6.50;99.90;;;;;;4967984;28;20027;-76
2021/12/24 08:51:50;;;;;;;21.67;14.52;;;6.50;99.90;;;;;;4967843;28;20027;-80
2021/12/24 08:54:17;;;;;;;21.38;13.82;;;6.60;99.90;;;;;;4965221;28;20349;-78
2021/12/24 08:56:43;;;;;;;23.00;13.65;;;6.60;99.90;;;;;;4966715;28;20054;-78
2021/12/24 08:59:09;;;;;;;21.30;14.32;;;6.60;99.90;;;;;;4964187;28;20034;-78
2021/12/24 09:01:35;;;;;;;21.67;13.77;;;6.70;99.90;;;;;;4958381;28;20387;-76
2021/12/24 09:04:02;;;;;;;22.25;13.88;;;6.70;99.90;;;;;;4966660;28;20026;-77
2021/12/24 09:06:28;;;;;;;23.98;14.05;;;6.70;99.90;;;;;;4961025;28;20042;-77
2021/12/24 09:08:53;;;;;;;24.88;14.32;;;6.80;99.90;;;;;;4967324;28;20031;-76
2021/12/24 09:11:19;;;;;;;24.63;14.48;;;6.80;99.90;;;;;;4961132;28;20376;-77
2021/12/24 09:13:45;;;;;;;21.85;13.52;;;6.80;99.90;;;;;;4965367;28;21705;-79
2021/12/24 09:16:11;;;;;;;20.42;13.18;;;6.90;99.90;;;;;;4274258;28;10000768;-78
2021/12/24 09:18:41;;;;;;;19.38;13.75;;;6.90;99.90;;;;;;4958593;28;20506;-78
2021/12/24 09:21:14;;;;;;;20.40;14.30;;;6.90;99.90;;;;;;4957847;28;20074;-78
2021/12/24 09:23:43;;;;;;;22.05;14.85;;;7.00;99.90;;;;;;4963499;28;20034;-78
2021/12/24 09:26:08;;;;;;;24.67;14.85;;;7.00;99.90;;;;;;4963950;28;20030;-78
2021/12/24 09:28:34;;;;;;;23.50;14.13;;;7.00;99.90;;;;;;4966661;28;20023;-78
2021/12/24 09:31:00;;;;;;;23.77;14.73;;;7.00;99.90;;;;;;4965472;28;20041;-78
2021/12/24 09:33:25;;;;;;;17.67;13.10;;;7.20;99.90;;;;;;4958706;28;20037;-78
2021/12/24 09:35:51;;;;;;;19.33;13.07;;;7.20;99.90;;;;;;4959377;28;20499;-78
2021/12/24 09:38:17;;;;;;;21.55;13.02;;;;;;;;;;4964407;28;20129;-78
2021/12/24 09:40:43;;;;;;;18.48;12.60;;;;;;;;;;4956098;28;20705;-78
2021/12/24 09:43:09;;;;;;;19.58;13.05;;;;;;;;;;4964328;28;20058;-78
2021/12/24 09:45:35;;;;;;;17.45;12.52;;;;;;;;;;4966358;28;20034;-78
2021/12/24 09:48:01;;;;;;;19.67;11.88;;;;;;;;;;4958467;28;20034;-78
2021/12/24 09:50:28;;;;;;;18.52;12.77;;;;;;;;;;4958475;28;20030;-78
2021/12/24 09:52:54;;;;;;;22.10;13.07;;;7.50;99.90;;;;;;4958155;28;20180;-79
2021/12/24 09:55:24;;;;;;;20.55;12.52;;;7.40;99.90;;;;;;4965543;28;20376;-79
2021/12/24 09:57:50;;;;;;;19.63;14.35;;;7.40;99.90;;;;;;4967419;28;20078;-79
2021/12/24 10:00:19;;;;;;;20.75;12.88;;;7.40;99.90;;;;;;4955201;28;20043;-79
2021/12/24 10:02:49;;;;;;;23.98;13.32;;;7.40;99.90;;;;;;4953056;28;20035;-79
2021/12/24 10:05:42;;;;;;;20.92;13.48;;;7.40;99.90;;;;;;4951330;28;20035;-78
2021/12/24 10:08:08;;;;;;;20.15;12.82;;;7.40;99.90;;;;;;4955646;28;20439;-79
2021/12/24 10:10:37;;;;;;;20.17;12.98;;;7.40;99.90;;;;;;4958134;28;20032;-78
2021/12/24 10:13:38;;;;;;;20.45;13.05;;;7.40;99.90;;;;;;4960035;28;20069;-78
2021/12/24 10:16:17;;;;;;;25.63;13.63;;;7.40;99.90;;;;;;4863529;28;10000530;-78
2021/12/24 10:18:43;;;;;;;21.25;13.15;;;7.40;99.90;;;;;;4954597;28;20787;-79
2021/12/24 10:21:14;;;;;;;20.85;13.55;;;7.40;99.90;;;;;;4955551;28;20038;-79
2021/12/24 10:23:43;;;;;;;20.10;12.25;;;7.40;99.90;;;;;;4952573;28;20483;-79
2021/12/24 10:26:18;;;;;;;19.95;12.20;;;7.40;99.90;;;;;;4950727;28;20479;-78
2021/12/24 10:28:57;;;;;;;22.50;15.07;;;7.40;99.90;;;;;;4964122;28;20022;-78
2021/12/24 10:31:26;;;;;;;27.10;17.20;;;7.40;99.90;;;;;;4956880;28;22539;-78
2021/12/24 10:34:04;;;;;;;21.83;15.65;;;7.40;99.90;;;;;;4961195;28;20035;-78
2021/12/24 10:36:29;;;;;;;31.15;20.50;;;7.50;99.90;;;;;;4951575;28;20035;-78
2021/12/24 10:38:55;;;;;;;21.00;12.70;;;7.50;99.90;;;;;;4953497;28;20601;-78
2021/12/24 10:41:21;;;;;;;19.45;11.70;;;7.50;99.90;;;;;;4955958;28;20038;-78
2021/12/24 10:43:47;;;;;;;21.70;11.45;;;7.50;99.90;;;;;;4964824;28;20117;-78
2021/12/24 10:46:21;;;;;;;19.33;12.00;;;7.60;99.90;;;;;;4962125;28;20039;-77
2021/12/24 10:49:14;;;;;;;17.35;11.07;;;7.60;99.90;;;;;;4958597;28;20117;-77
2021/12/24 10:52:12;;;;;;;20.52;11.75;;;7.60;99.90;;;;;;4960471;28;20042;-78
2021/12/24 10:54:58;;;;;;;25.90;13.13;;;7.50;99.90;;;;;;4955373;28;20036;-78
2021/12/24 10:57:29;;;;;;;24.60;13.55;;;7.50;99.90;;;;;;4953245;28;20147;-80
2021/12/24 10:59:59;;;;;;;20.27;12.85;;;7.50;99.90;;;;;;4971294;28;20396;-78
2021/12/24 11:02:33;;;;;;;20.20;12.63;;;7.50;99.90;;;;;;4960898;28;20046;-78
2021/12/24 11:04:59;;;;;;;22.50;12.95;;;7.50;99.90;;;;;;4961312;28;20031;-78
2021/12/24 11:07:42;;;;;;;30.00;12.35;;;7.50;99.90;;;;;;4957350;28;20545;-81
2021/12/24 11:10:26;;;;;;;26.70;15.45;;;7.50;99.90;;;;;;4966964;28;20508;-80
2021/12/24 11:12:56;;;;;;;23.23;12.88;;;7.50;99.90;;;;;;4967703;28;20105;-79
2021/12/24 11:15:24;;;;;;;21.35;11.50;;;7.50;99.90;;;;;;4962751;28;20490;-79
2021/12/24 11:17:51;;;;;;;20.40;12.40;;;7.40;99.90;;;;;;4964073;28;20034;-79
2021/12/24 11:20:17;;;;;;;21.02;13.10;;;7.40;99.90;;;;;;4971495;28;20407;-77
2021/12/24 11:23:04;;;;;;;21.95;12.98;;;7.40;99.90;;;;;;4965575;28;20035;-78
2021/12/24 11:25:34;;;;;;;21.38;12.93;;;7.40;99.90;;;;;;4961961;28;20023;-81
2021/12/24 11:27:59;;;;;;;20.90;13.18;;;7.40;99.90;;;;;;4971209;28;20486;-78
2021/12/24 11:30:27;;;;;;;23.52;13.98;;;7.30;99.90;;;;;;4969575;28;20031;-79
2021/12/24 11:32:53;;;;;;;23.75;13.90;;;7.40;99.90;;;;;;4961642;28;20049;-80
2021/12/24 11:35:19;;;;;;;22.52;14.98;;;7.30;99.90;;;;;;4961352;28;20120;-78
2021/12/24 11:37:47;;;;;;;22.38;14.52;;;7.30;99.90;;;;;;4964467;28;20029;-80
2021/12/24 11:40:14;;;;;;;22.45;14.63;;;7.30;99.90;;;;;;4963493;28;20035;-79
2021/12/24 11:42:43;;;;;;;24.10;13.43;;;7.40;99.90;;;;;;4960197;28;20054;-79
2021/12/24 11:45:10;;;;;;;20.20;12.68;;;7.30;99.90;;;;;;4956505;28;20034;-81
2021/12/24 11:47:36;;;;;;;24.00;13.75;;;7.40;99.90;;;;;;4961903;28;20019;-82
2021/12/24 11:50:03;;;;;;;24.15;12.27;;;7.40;99.90;;;;;;4963777;28;20050;-79
2021/12/24 11:52:29;;;;;;;20.98;12.98;;;7.40;99.90;;;;;;4965014;28;20114;-76
2021/12/24 11:54:57;;;;;;;20.73;12.57;;;;;;;;;;4961477;28;20503;-78
2021/12/24 11:57:23;;;;;;;20.83;13.15;;;7.40;99.90;;;;;;4963657;28;20037;-79
2021/12/24 11:59:49;;;;;;;24.40;13.23;;;7.40;99.90;;;;;;4959790;28;20049;-80
2021/12/24 12:02:35;;;;;;;21.70;12.90;;;7.40;99.90;;;;;;4968093;28;20049;-78
2021/12/24 12:05:32;;;;;;;25.42;13.18;;;7.50;99.90;;;;;;4964768;28;20034;-77
2021/12/24 12:08:33;;;;;;;24.60;13.60;;;7.50;99.90;;;;;;4958873;28;20039;-79
2021/12/24 12:11:07;;;;;;;22.77;13.75;;;7.50;99.90;;;;;;4925447;28;20046;-83
2021/12/24 12:13:40;;;;;;;23.92;13.95;;;7.50;99.90;;;;;;4966138;28;20113;-78
2021/12/24 12:16:10;;;;;;;27.83;14.85;;;7.50;99.90;;;;;;4958351;28;20039;-76
2021/12/24 12:18:46;;;;;;;26.73;14.50;;;7.50;99.90;;;;;;4955197;28;20118;-79
2021/12/24 12:21:35;;;;;;;25.40;14.57;;;7.60;99.90;;;;;;4958095;28;20122;-83
2021/12/24 12:26:55;;;;;;;22.15;13.95;;;7.60;99.90;;;;;;4969039;28;20059;-77
2021/12/24 12:29:41;;;;;;;22.77;14.15;;;7.70;99.90;;;;;;4969785;28;20050;-77
2021/12/24 12:32:13;;;;;;;21.88;13.73;;;7.70;99.90;;;;;;4962262;28;20043;-78
2021/12/24 12:34:38;;;;;;;24.98;13.50;;;7.70;99.90;;;;;;4960409;28;20027;-74
2021/12/24 12:37:17;;;;;;;22.77;12.90;;;7.70;99.90;;;;;;4966907;28;20034;-77
2021/12/24 12:39:53;;;;;;;22.42;12.73;;;7.70;99.90;;;;;;4958789;28;20027;-75
2021/12/24 12:42:21;;;;;;;24.05;13.48;;;7.70;99.90;;;;;;4961855;28;20117;-75
2021/12/24 12:44:51;;;;;;;21.88;11.70;;;7.70;99.90;;;;;;4962654;28;20495;-75
2021/12/24 12:47:27;;;;;;;23.30;12.38;;;7.70;99.90;;;;;;4960210;28;20114;-78
2021/12/24 12:50:15;;;;;;;23.83;13.15;;;7.70;99.90;;;;;;4963487;28;20479;-76
2021/12/24 12:52:41;;;;;;;23.35;12.32;;;7.70;99.90;;;;;;4958875;28;20034;-76
2021/12/24 12:55:28;;;;;;;22.90;14.07;;;7.70;99.90;;;;;;4959879;28;20491;-76
2021/12/24 12:58:17;;;;;;;26.90;13.82;;;7.70;99.90;;;;;;4968554;28;20093;-74
2021/12/24 13:01:00;;;;;;;22.00;13.30;;;7.70;99.90;;;;;;4621367;28;10000633;-74
2021/12/24 13:03:26;;;;;;;24.02;13.00;;;7.80;99.90;;;;;;4962768;28;20278;-74
2021/12/24 13:05:55;;;;;;;22.38;13.07;;;7.80;99.90;;;;;;4967725;28;20058;-75
2021/12/24 13:08:23;;;;;;;19.30;12.75;;;7.80;99.90;;;;;;4965263;28;20158;-75
2021/12/24 13:10:55;;;;;;;24.40;13.98;;;7.80;99.90;;;;;;4968292;28;20042;-76
2021/12/24 13:13:20;;;;;;;22.95;13.35;;;7.90;99.90;;;;;;4980135;28;20390;-75
2021/12/24 13:15:47;;;;;;;20.67;12.85;;;7.90;99.90;;;;;;4968879;28;20039;-75
2021/12/24 13:18:35;;;;;;;22.15;12.80;;;7.90;99.90;;;;;;4966839;28;20039;-75
2021/12/24 13:23:35;;;;;;;21.08;11.68;;;8.00;99.90;;;;;;4949203;28;20065;-76
2021/12/24 13:26:12;;;;;;;25.73;12.50;;;8.00;99.90;;;;;;4949576;29;20023;-75
2021/12/24 13:28:53;;;;;;;18.30;11.68;;;8.00;99.90;;;;;;4952070;28;20088;-76
2021/12/24 13:31:19;;;;;;;21.42;13.10;;;8.10;99.90;;;;;;4957469;28;20051;-76
2021/12/24 13:33:47;;;;;;;21.05;12.32;;;8.10;99.90;;;;;;4960822;28;20043;-75
2021/12/24 13:36:13;;;;;;;19.65;12.15;;;8.10;99.90;;;;;;4959357;28;20027;-75
2021/12/24 13:38:38;;;;;;;18.55;11.13;;;8.20;99.90;;;;;;4967708;28;20712;-76
2021/12/24 13:41:04;;;;;;;22.25;13.38;;;8.20;99.90;;;;;;4951246;28;20147;-75
2021/12/24 13:43:35;;;;;;;24.35;12.93;;;8.20;99.90;;;;;;4951522;28;20487;-76
2021/12/24 13:46:07;;;;;;;19.67;13.15;;;8.20;99.90;;;;;;4950239;28;20038;-75
2021/12/24 13:48:46;;;;;;;20.75;11.52;;;8.20;99.90;;;;;;4974333;28;20081;-75
2021/12/24 13:56:41;;;;;;;22.20;12.77;;;8.20;99.90;;;;;;4955343;28;20101;-75
2021/12/24 13:59:12;;;;;;;24.58;13.05;;;8.20;99.90;;;;;;4952760;28;20028;-75
2021/12/24 14:01:40;;;;;;;21.98;11.95;;;8.20;99.90;;;;;;4963766;28;20066;-75
2021/12/24 14:04:06;;;;;;;18.70;10.45;;;8.10;99.90;;;;;;4965068;28;20110;-75
2021/12/24 14:06:50;;;;;;;22.17;11.35;;;8.10;99.90;;;;;;4963408;28;20046;-75
2021/12/24 14:09:23;;;;;;;17.20;9.80;;;8.10;99.90;;;;;;4951833;28;20118;-75
2021/12/24 14:11:52;;;;;;;14.38;7.57;;;8.10;99.90;;;;;;4965986;28;20105;-75
2021/12/24 14:14:24;;;;;;;18.48;10.68;;;8.10;99.90;;;;;;4963396;28;20143;-75
2021/12/24 14:17:04;;;;;;;18.93;10.40;;;8.10;99.90;;;;;;4966167;28;20062;-75
2021/12/24 14:19:45;;;;;;;18.80;10.73;;;8.10;99.90;;;;;;4968131;28;20120;-77
2021/12/24 14:22:14;;;;;;;21.45;10.73;;;8.10;99.90;;;;;;4966613;28;20070;-77
2021/12/24 14:25:00;;;;;;;19.60;11.18;;;8.10;99.90;;;;;;4965883;28;20027;-77
2021/12/24 14:27:30;;;;;;;21.52;11.25;;;8.10;99.90;;;;;;4957872;28;20180;-75
2021/12/24 14:29:58;;;;;;;18.50;10.95;;;8.10;99.90;;;;;;4956336;28;20031;-76
2021/12/24 14:32:30;;;;;;;19.73;12.13;;;8.10;99.90;;;;;;4959182;28;20028;-76
2021/12/24 14:34:59;;;;;;;19.30;11.82;;;8.10;99.90;;;;;;4965245;28;20082;-76
2021/12/24 14:37:36;;;;;;;21.75;11.85;;;8.10;99.90;;;;;;4957010;28;20038;-76
2021/12/24 14:40:08;;;;;;;19.23;11.93;;;8.00;99.90;;;;;;4962876;28;20043;-76
2021/12/24 14:42:36;;;;;;;23.67;14.45;;;8.00;99.90;;;;;;4964950;28;20046;-76
2021/12/24 14:45:27;;;;;;;22.52;12.55;;;7.90;99.90;;;;;;4969683;28;20750;-76
2021/12/24 14:48:03;;;;;;;26.63;15.45;;;8.00;99.90;;;;;;4969436;28;20035;-76